Portada
METAR-TAF:

METAR-TAF

Aeroports :

Aeroport de Milà-Linate

Milà, Itàlia

latitud: 45-26N, longitud: 009-17E, altitud: 107 m

Observació

L'informe es va fer fa 27 minuts, a les 21:50 UTC
Vent 2 kt amb direcció variable
Temperatura 7°C
Humitat 93%
Pressió 1024 hPa
Visibilitat: 4000 m
boirina

METAR: LIML 182150Z VRB02KT 4000 BR NSC 07/06 Q1024 NOSIG

Hora: 23:17 (22:17 UTC)

Pronòstic

L'informe es va fer fa 5 hores i 17 minuts, a les 17:00 UTC
Pronòstic vàlid del 18 a les 18 UTC al 19 a les 18 UTC
Vent 4 kt amb direcció variable
Visibilitat: 7000 m
Evolucionant progressivament
l' 18 a les 19 UTC al 18 a les 21 UTC
Visibilitat: 2500 m
boirina
Temporalment
l' 19 a les 02 UTC al 19 a les 08 UTC
Visibilitat: 0800 m
Cel ennuvolat a una alçada de 500 ft
boira
Evolucionant progressivament
l' 19 a les 08 UTC al 19 a les 10 UTC
Visibilitat: 7000 m

TAF: LIML 181700Z 1818/1918 VRB04KT 7000 NSC BECMG 1819/1821 2500 BR TEMPO 1902/1908 0800 FG BKN005 BECMG 1908/1910 7000

Observacions i pronòstics meteorològics de més de 4000 aeroports (METAR i TAF).

Les estacions disponibles són els punts grocs i vermells al mapa.

Posi el ratolí al punt desitjat per veure el nom de l'estació.

Feu clic per veure les observacions i els pronòstics meteorològics.

Per canviar el mapa: feu clic els botons verds amb una creu de color negre per apropar; al botó verd amb un guió per allunyar la imatge; o en les fletxes verdes per a mapes adjacents.


METAR-TAF: